Time;durP1;ratioP1;P1;durP2;ratioP2;P2;SDS_P1;SDS_P2;PMS_P1;PMS_P2;Temp;Humidity;BMP_temperature;BMP_pressure;BME280_temperature;BME280_humidity;BME280_pressure;Samples;Min_cycle;Max_cycle;Signal;HPM_P1;HPM_P2
2024/01/26 00:01:48;;;;;;;;;;;;;;;;;;4927260;29;5109;-70
2024/01/26 00:04:13;;;;;;;;;;;;;;;;;;4926954;29;5037;-69
2024/01/26 00:06:39;;;;;;;;;;;;;;;;;;4930212;29;5179;-68
2024/01/26 00:09:15;;;;;;;;;;;;;;;;;;4927902;29;3745;-67
2024/01/26 00:11:40;;;;;;;;;;;;;;;;;;4929389;29;5029;-68
2024/01/26 00:14:06;;;;;;;;;;;;;;;;;;4929597;29;4628;-66
2024/01/26 00:16:32;;;;;;;;;;;;;;;;;;4927329;29;4905;-69
2024/01/26 00:18:57;;;;;;;;;;;;;;;;;;4930206;29;4691;-69
2024/01/26 00:21:22;;;;;;;;;;;;;;;;;;4927432;29;2290;-66
2024/01/26 00:23:48;;;;;;;;;;;;;;;;;;4927621;29;5113;-70
2024/01/26 00:26:13;;;;;;;;;;;;;;;;;;4911702;29;4524;-68
2024/01/26 00:28:38;;;;;;;;;;;;;;;;;;4910084;29;5124;-68
2024/01/26 00:31:04;;;;;;;;;;;;;;;;;;4927020;29;5150;-68
2024/01/26 00:33:29;;;;;;;;;;;;;;;;;;4932549;29;1534;-70
2024/01/26 00:35:54;;;;;;;;;;;;;;;;;;4930193;29;4436;-69
2024/01/26 00:38:20;;;;;;;;;;;;;;;;;;4927664;29;4627;-69
2024/01/26 00:40:45;;;;;;;;;;;;;;;;;;4925765;29;4495;-69
2024/01/26 00:43:10;;;;;;;;;;;;;;;;;;4928465;29;4956;-69
2024/01/26 00:45:35;;;;;;;;;;;;;;;;;;4928926;29;4755;-66
2024/01/26 00:48:01;;;;;;;;;;;;;;;;;;4927841;29;3552;-69
2024/01/26 00:50:26;;;;;;;;;;;;;;;;;;4926014;29;4693;-67
2024/01/26 00:52:52;;;;;;;;;;;;;;;;;;4924298;29;5166;-69
2024/01/26 00:55:17;;;;;;;;;;;;;;;;;;4927380;28;5057;-68
2024/01/26 00:57:43;;;;;;;;;;;;;;;;;;4926815;29;4758;-69
2024/01/26 01:00:08;;;;;;;;;;;;;;;;;;4930071;29;3392;-68
2024/01/26 01:02:33;;;;;;;;;;;;;;;;;;4926516;29;4522;-66
2024/01/26 01:04:59;;;;;;;;;;;;;;;;;;4922949;29;4534;-68
2024/01/26 01:07:25;;;;;;;;;;;;;;;;;;4929875;29;5068;-69
2024/01/26 01:09:50;;;;;;;;;;;;;;;;;;4926095;29;5101;-69
2024/01/26 01:12:15;;;;;;;;;;;;;;;;;;4932218;29;1266;-65
2024/01/26 01:14:41;;;;;;;;;;;;;;;;;;4919947;29;4497;-63
2024/01/26 01:17:08;;;;;;;;;;;;;;;;;;4921796;29;4524;-67
2024/01/26 01:19:34;;;;;;;;;;;;;;;;;;4909918;29;4995;-67
2024/01/26 01:21:59;;;;;;;;;;;;;;;;;;4930149;29;5330;-67
2024/01/26 01:24:25;;;;;;;;;;;;;;;;;;4931675;29;1002;-64
2024/01/26 01:26:50;;;;;;;;;;;;;;;;;;4911391;29;4718;-68
2024/01/26 01:29:16;;;;;;;;;;;;;;;;;;4927111;29;4534;-66
2024/01/26 01:31:41;;;;;;;;;;;;;;;;;;4925252;29;5143;-67
2024/01/26 01:34:06;;;;;;;;;;;;;;;;;;4921315;29;5323;-67
2024/01/26 01:36:32;;;;;;;;;;;;;;;;;;4906687;29;1148;-68
2024/01/26 01:38:57;;;;;;;;;;;;;;;;;;4929974;29;5019;-68
2024/01/26 01:41:22;;;;;;;;;;;;;;;;;;4929610;29;4928;-61
2024/01/26 01:43:54;;;;;;;;;;;;;;;;;;4925449;29;4507;-66
2024/01/26 01:46:20;;;;;;;;;;;;;;;;;;4925607;29;5067;-67
2024/01/26 01:48:45;;;;;;;;;;;;;;;;;;4925091;29;5144;-68
2024/01/26 01:51:11;;;;;;;;;;;;;;;;;;4925641;29;3499;-61
2024/01/26 01:53:36;;;;;;;;;;;;;;;;;;4926845;29;4952;-67
2024/01/26 01:56:01;;;;;;;;;;;;;;;;;;4907540;29;5205;-69
2024/01/26 01:58:28;;;;;;;;;;;;;;;;;;4910556;29;4798;-68
2024/01/26 02:00:53;;;;;;;;;;;;;;;;;;4920119;29;5447;-65
2024/01/26 02:03:20;;;;;;;;;;;;;;;;;;4923250;29;3389;-66
2024/01/26 02:05:45;;;;;;;;;;;;;;;;;;4921790;29;4897;-67
2024/01/26 02:08:11;;;;;;;;;;;;;;;;;;4921679;29;4578;-66
2024/01/26 02:10:36;;;;;;;;;;;;;;;;;;4922506;29;5193;-70
2024/01/26 02:13:01;;;;;;;;;;;;;;;;;;4925561;29;4576;-69
2024/01/26 02:15:27;;;;;;;;;;;;;;;;;;4929371;29;3350;-70
2024/01/26 02:17:52;;;;;;;;;;;;;;;;;;4922437;29;4594;-62
2024/01/26 02:20:17;;;;;;;;;;;;;;;;;;4920793;29;4995;-67
2024/01/26 02:22:42;;;;;;;;;;;;;;;;;;4921147;29;5118;-68
2024/01/26 02:25:08;;;;;;;;;;;;;;;;;;4922582;29;4718;-68
2024/01/26 02:27:33;;;;;;;;;;;;;;;;;;4927822;29;3346;-66
2024/01/26 02:29:59;;;;;;;;;;;;;;;;;;4920707;29;4672;-66
2024/01/26 02:32:24;;;;;;;;;;;;;;;;;;4905666;29;5092;-68
2024/01/26 02:34:49;;;;;;;;;;;;;;;;;;4921606;29;5267;-66
2024/01/26 02:37:15;;;;;;;;;;;;;;;;;;4920582;29;5519;-66
2024/01/26 02:39:40;;;;;;;;;;;;;;;;;;4926312;29;4654;-65
2024/01/26 02:42:05;;;;;;;;;;;;;;;;;;4930143;29;3510;-69
2024/01/26 02:44:31;;;;;;;;;;;;;;;;;;4896074;29;4485;-69
2024/01/26 02:46:56;;;;;;;;;;;;;;;;;;4928628;29;5868;-65
2024/01/26 02:49:22;;;;;;;;;;;;;;;;;;4927430;29;4566;-69
2024/01/26 02:51:47;;;;;;;;;;;;;;;;;;4930537;29;5182;-67
2024/01/26 02:54:12;;;;;;;;;;;;;;;;;;4932496;28;3261;-68
2024/01/26 02:56:37;;;;;;;;;;;;;;;;;;4928268;29;5067;-69
2024/01/26 02:59:03;;;;;;;;;;;;;;;;;;4924342;29;5297;-69
2024/01/26 03:01:28;;;;;;;;;;;;;;;;;;4925874;29;5167;-66
2024/01/26 03:03:53;;;;;;;;;;;;;;;;;;4926025;29;5252;-66
2024/01/26 03:06:19;;;;;;;;;;;;;;;;;;4926698;29;3425;-69
2024/01/26 03:08:44;;;;;;;;;;;;;;;;;;4928537;29;5028;-66
2024/01/26 03:11:11;;;;;;;;;;;;;;;;;;4926597;29;4699;-69
2024/01/26 03:13:36;;;;;;;;;;;;;;;;;;4923996;29;5357;-65
2024/01/26 03:16:02;;;;;;;;;;;;;;;;;;4926509;29;5170;-65
2024/01/26 03:18:27;;;;;;;;;;;;;;;;;;4924933;29;3346;-67
2024/01/26 03:20:52;;;;;;;;;;;;;;;;;;4913840;29;4707;-65
2024/01/26 03:23:17;;;;;;;;;;;;;;;;;;4928960;29;4730;-68
2024/01/26 03:25:43;;;;;;;;;;;;;;;;;;4926073;29;5222;-68
2024/01/26 03:28:08;;;;;;;;;;;;;;;;;;4927080;29;5126;-69
2024/01/26 03:30:33;;;;;;;;;;;;;;;;;;4927819;29;3416;-67
2024/01/26 03:32:59;;;;;;;;;;;;;;;;;;4930987;29;5062;-65
2024/01/26 03:35:24;;;;;;;;;;;;;;;;;;4925874;29;5128;-67
2024/01/26 03:37:49;;;;;;;;;;;;;;;;;;4929305;29;5063;-67
2024/01/26 03:40:15;;;;;;;;;;;;;;;;;;4925447;29;4572;-67
2024/01/26 03:42:41;;;;;;;;;;;;;;;;;;4929367;29;5140;-62
2024/01/26 03:45:07;;;;;;;;;;;;;;;;;;4923844;29;3405;-66
2024/01/26 03:47:32;;;;;;;;;;;;;;;;;;4924981;29;4583;-64
2024/01/26 03:49:57;;;;;;;;;;;;;;;;;;4925932;29;5186;-65
2024/01/26 03:52:23;;;;;;;;;;;;;;;;;;4924588;29;4543;-66
2024/01/26 03:54:48;;;;;;;;;;;;;;;;;;4927797;28;5159;-67
2024/01/26 03:57:13;;;;;;;;;;;;;;;;;;4928739;29;3854;-69
2024/01/26 03:59:38;;;;;;;;;;;;;;;;;;4929361;29;4497;-68
2024/01/26 04:02:04;;;;;;;;;;;;;;;;;;4928930;29;5160;-65
2024/01/26 04:04:29;;;;;;;;;;;;;;;;;;4923995;29;5111;-69
2024/01/26 04:06:54;;;;;;;;;;;;;;;;;;4924237;29;5084;-69
2024/01/26 04:09:20;;;;;;;;;;;;;;;;;;4926317;29;3982;-69
2024/01/26 04:11:45;;;;;;;;;;;;;;;;;;4926376;29;5016;-68
2024/01/26 04:14:11;;;;;;;;;;;;;;;;;;4921235;29;4493;-61
2024/01/26 04:16:36;;;;;;;;;;;;;;;;;;4920743;29;5124;-69
2024/01/26 04:19:01;;;;;;;;;;;;;;;;;;4929677;29;4655;-71
2024/01/26 04:21:27;;;;;;;;;;;;;;;;;;4926698;29;3544;-68
2024/01/26 04:23:52;;;;;;;;;;;;;;;;;;4923781;29;5115;-66
2024/01/26 04:26:17;;;;;;;;;;;;;;;;;;4925628;29;5062;-67
2024/01/26 04:28:43;;;;;;;;;;;;;;;;;;4909422;29;4549;-65
2024/01/26 04:31:08;;;;;;;;;;;;;;;;;;4924811;29;5454;-66
2024/01/26 04:33:33;;;;;;;;;;;;;;;;;;4926236;29;3337;-63
2024/01/26 04:35:59;;;;;;;;;;;;;;;;;;4920274;29;4453;-67
2024/01/26 04:38:24;;;;;;;;;;;;;;;;;;4926330;29;4907;-63
2024/01/26 04:40:49;;;;;;;;;;;;;;;;;;4921980;29;5125;-69
2024/01/26 04:43:14;;;;;;;;;;;;;;;;;;4925450;29;5204;-68
2024/01/26 04:45:40;;;;;;;;;;;;;;;;;;4922414;29;5069;-69
2024/01/26 04:48:05;;;;;;;;;;;;;;;;;;4925636;29;3653;-70
2024/01/26 04:50:30;;;;;;;;;;;;;;;;;;4906968;29;5016;-69
2024/01/26 04:52:56;;;;;;;;;;;;;;;;;;4923356;29;4569;-61
2024/01/26 04:55:22;;;;;;;;;;;;;;;;;;4921544;28;5249;-69
2024/01/26 04:57:48;;;;;;;;;;;;;;;;;;4931216;29;5031;-67
2024/01/26 05:00:13;;;;;;;;;;;;;;;;;;4924167;29;3546;-68
2024/01/26 05:02:39;;;;;;;;;;;;;;;;;;4927077;29;5224;-67
2024/01/26 05:05:04;;;;;;;;;;;;;;;;;;4922951;29;5064;-65
2024/01/26 05:07:29;;;;;;;;;;;;;;;;;;4929568;29;4598;-68
2024/01/26 05:09:55;;;;;;;;;;;;;;;;;;4923651;29;5050;-65
2024/01/26 05:12:20;;;;;;;;;;;;;;;;;;4922024;29;3356;-69
2024/01/26 05:14:45;;;;;;;;;;;;;;;;;;4928687;29;4454;-68
2024/01/26 05:17:11;;;;;;;;;;;;;;;;;;4905861;29;5007;-63
2024/01/26 05:19:37;;;;;;;;;;;;;;;;;;4924547;29;5045;-68
2024/01/26 05:22:02;;;;;;;;;;;;;;;;;;4910430;29;4579;-64
2024/01/26 05:24:27;;;;;;;;;;;;;;;;;;4927441;29;3419;-68
2024/01/26 05:26:53;;;;;;;;;;;;;;;;;;4925042;29;5002;-69
2024/01/26 05:29:18;;;;;;;;;;;;;;;;;;4921503;29;5306;-67
2024/01/26 05:31:43;;;;;;;;;;;;;;;;;;4922358;29;5172;-66
2024/01/26 05:34:09;;;;;;;;;;;;;;;;;;4920866;29;4944;-68
2024/01/26 05:36:43;;;;;;;;;;;;;;;;;;4923245;29;3400;-65
2024/01/26 05:39:09;;;;;;;;;;;;;;;;;;4906948;29;4716;-66
2024/01/26 05:41:34;;;;;;;;;;;;;;;;;;4923532;29;5017;-67
2024/01/26 05:44:00;;;;;;;;;;;;;;;;;;4923830;29;5128;-67
2024/01/26 05:46:25;;;;;;;;;;;;;;;;;;4908918;29;5109;-68
2024/01/26 05:48:50;;;;;;;;;;;;;;;;;;4925727;29;5065;-68
2024/01/26 05:51:15;;;;;;;;;;;;;;;;;;4926271;29;3399;-65
2024/01/26 05:53:41;;;;;;;;;;;;;;;;;;4924932;29;4721;-67
2024/01/26 05:56:06;;;;;;;;;;;;;;;;;;4922667;28;5246;-67
2024/01/26 05:58:32;;;;;;;;;;;;;;;;;;4922039;29;5014;-68
2024/01/26 06:00:57;;;;;;;;;;;;;;;;;;4924809;29;5202;-67
2024/01/26 06:03:23;;;;;;;;;;;;;;;;;;4928367;29;3847;-67
2024/01/26 06:05:48;;;;;;;;;;;;;;;;;;4920886;29;4545;-67
2024/01/26 06:08:13;;;;;;;;;;;;;;;;;;4919544;29;4577;-68
2024/01/26 06:10:38;;;;;;;;;;;;;;;;;;4921678;29;5069;-67
2024/01/26 06:13:05;;;;;;;;;;;;;;;;;;4923381;29;5237;-68
2024/01/26 06:15:30;;;;;;;;;;;;;;;;;;4920381;29;3304;-68
2024/01/26 06:17:55;;;;;;;;;;;;;;;;;;4926229;29;4446;-67
2024/01/26 06:20:21;;;;;;;;;;;;;;;;;;4899976;29;5163;-67
2024/01/26 06:22:46;;;;;;;;;;;;;;;;;;4926591;29;4992;-68
2024/01/26 06:25:11;;;;;;;;;;;;;;;;;;4926130;29;5099;-65
2024/01/26 06:27:37;;;;;;;;;;;;;;;;;;4920976;29;4935;-64
2024/01/26 06:30:03;;;;;;;;;;;;;;;;;;4919167;29;3800;-66
2024/01/26 06:32:29;;;;;;;;;;;;;;;;;;4916004;29;4869;-65
2024/01/26 06:34:54;;;;;;;;;;;;;;;;;;4922892;29;4551;-66
2024/01/26 06:37:21;;;;;;;;;;;;;;;;;;4922739;29;5161;-68
2024/01/26 06:39:46;;;;;;;;;;;;;;;;;;4925407;29;5220;-68
2024/01/26 06:42:11;;;;;;;;;;;;;;;;;;4907587;29;3475;-65
2024/01/26 06:44:36;;;;;;;;;;;;;;;;;;4924018;29;5122;-65
2024/01/26 06:47:02;;;;;;;;;;;;;;;;;;4913111;29;5094;-68
2024/01/26 06:49:27;;;;;;;;;;;;;;;;;;4918904;29;4631;-60
2024/01/26 06:51:52;;;;;;;;;;;;;;;;;;4920561;29;5191;-59
2024/01/26 06:54:18;;;;;;;;;;;;;;;;;;4920734;28;3875;-60
2024/01/26 06:56:43;;;;;;;;;;;;;;;;;;4921961;29;5046;-59
2024/01/26 06:59:09;;;;;;;;;;;;;;;;;;4926388;29;5256;-58
2024/01/26 07:01:34;;;;;;;;;;;;;;;;;;4909194;29;4644;-57
2024/01/26 07:03:59;;;;;;;;;;;;;;;;;;4928436;29;5158;-63
2024/01/26 07:06:24;;;;;;;;;;;;;;;;;;4930908;29;1150;-58
2024/01/26 07:08:50;;;;;;;;;;;;;;;;;;4926365;29;4721;-58
2024/01/26 07:11:17;;;;;;;;;;;;;;;;;;4924598;29;5184;-56
2024/01/26 07:13:42;;;;;;;;;;;;;;;;;;4910400;29;5085;-59
2024/01/26 07:16:08;;;;;;;;;;;;;;;;;;4912520;29;4694;-54
2024/01/26 07:18:33;;;;;;;;;;;;;;;;;;4928129;29;1101;-58
2024/01/26 07:20:58;;;;;;;;;;;;;;;;;;4929450;29;4457;-58
2024/01/26 07:23:24;;;;;;;;;;;;;;;;;;4910710;29;4670;-61
2024/01/26 07:25:49;;;;;;;;;;;;;;;;;;4924615;29;5119;-59
2024/01/26 07:28:14;;;;;;;;;;;;;;;;;;4927362;29;5100;-59
2024/01/26 07:30:39;;;;;;;;;;;;;;;;;;4931974;29;5030;-57
2024/01/26 07:33:06;;;;;;;;;;;;;;;;;;4933062;29;1078;-59
2024/01/26 07:35:31;;;;;;;;;;;;;;;;;;4932169;29;5665;-55
2024/01/26 07:37:56;;;;;;;;;;;;;;;;;;4931277;29;4894;-62
2024/01/26 07:40:22;;;;;;;;;;;;;;;;;;4931626;29;5155;-57
2024/01/26 07:42:47;;;;;;;;;;;;;;;;;;4932538;29;5041;-58
2024/01/26 07:45:13;;;;;;;;;;;;;;;;;;4930156;29;3618;-56
2024/01/26 07:47:39;;;;;;;;;;;;;;;;;;4932320;29;4986;-55
2024/01/26 07:50:04;;;;;;;;;;;;;;;;;;4932366;29;6144;-56
2024/01/26 07:52:29;;;;;;;;;;;;;;;;;;4931646;29;5034;-61
2024/01/26 07:54:55;;;;;;;;;;;;;;;;;;4929045;28;5168;-60
2024/01/26 07:57:21;;;;;;;;;;;;;;;;;;4929996;29;3607;-60
2024/01/26 07:59:47;;;;;;;;;;;;;;;;;;4931363;29;5073;-59
2024/01/26 08:02:12;;;;;;;;;;;;;;;;;;4924445;29;4520;-61
2024/01/26 08:04:38;;;;;;;;;;;;;;;;;;4929072;29;4838;-58
2024/01/26 08:07:03;;;;;;;;;;;;;;;;;;4913733;29;4910;-56
2024/01/26 08:09:28;;;;;;;;;;;;;;;;;;4930464;29;3415;-57
2024/01/26 08:11:53;;;;;;;;;;;;;;;;;;4932111;29;4714;-60
2024/01/26 08:14:19;;;;;;;;;;;;;;;;;;4930254;29;4627;-55
2024/01/26 08:16:44;;;;;;;;;;;;;;;;;;4930180;29;4598;-53
2024/01/26 08:19:09;;;;;;;;;;;;;;;;;;4930693;29;4557;-60
2024/01/26 08:21:35;;;;;;;;;;;;;;;;;;4932486;29;1922;-62
2024/01/26 08:24:00;;;;;;;;;;;;;;;;;;4930483;29;5169;-59
2024/01/26 08:26:26;;;;;;;;;;;;;;;;;;4910715;29;5156;-58
2024/01/26 08:28:52;;;;;;;;;;;;;;;;;;4931432;29;4483;-57
2024/01/26 08:31:17;;;;;;;;;;;;;;;;;;4914396;29;5160;-58
2024/01/26 08:33:42;;;;;;;;;;;;;;;;;;4929883;29;5836;-61
2024/01/26 08:36:08;;;;;;;;;;;;;;;;;;4929313;29;2441;-58
2024/01/26 08:38:33;;;;;;;;;;;;;;;;;;4911197;29;5192;-59
2024/01/26 08:40:58;;;;;;;;;;;;;;;;;;4928024;29;5086;-58
2024/01/26 08:43:24;;;;;;;;;;;;;;;;;;4929714;29;4612;-57
2024/01/26 08:45:49;;;;;;;;;;;;;;;;;;4931111;29;5098;-58
2024/01/26 08:48:14;;;;;;;;;;;;;;;;;;4931783;29;1096;-58
2024/01/26 08:50:40;;;;;;;;;;;;;;;;;;4926162;29;4908;-59
2024/01/26 08:53:06;;;;;;;;;;;;;;;;;;4930096;29;5275;-61
2024/01/26 08:55:32;;;;;;;;;;;;;;;;;;4930746;28;4716;-57
2024/01/26 08:57:57;;;;;;;;;;;;;;;;;;4928552;29;4741;-64
2024/01/26 09:00:23;;;;;;;;;;;;;;;;;;4931782;29;1081;-60
2024/01/26 09:02:48;;;;;;;;;;;;;;;;;;4930893;29;5018;-56
2024/01/26 09:05:14;;;;;;;;;;;;;;;;;;4930463;29;5027;-56
2024/01/26 09:07:39;;;;;;;;;;;;;;;;;;4913542;29;5127;-60
2024/01/26 09:10:05;;;;;;;;;;;;;;;;;;4928468;29;4896;-60
2024/01/26 09:12:31;;;;;;;;;;;;;;;;;;4930990;29;3555;-61
2024/01/26 09:14:57;;;;;;;;;;;;;;;;;;4930488;29;4983;-59
2024/01/26 09:17:22;;;;;;;;;;;;;;;;;;4929190;29;4764;-59
2024/01/26 09:19:47;;;;;;;;;;;;;;;;;;4930675;29;5761;-57
2024/01/26 09:22:13;;;;;;;;;;;;;;;;;;4929714;29;5171;-60
2024/01/26 09:24:38;;;;;;;;;;;;;;;;;;4924208;29;5224;-61
2024/01/26 09:27:03;;;;;;;;;;;;;;;;;;4931007;29;1297;-57
2024/01/26 09:29:29;;;;;;;;;;;;;;;;;;4930849;29;5013;-57
2024/01/26 09:31:56;;;;;;;;;;;;;;;;;;4924836;29;4720;-64
2024/01/26 09:34:21;;;;;;;;;;;;;;;;;;4925650;29;5211;-55
2024/01/26 09:36:47;;;;;;;;;;;;;;;;;;4930754;29;5267;-58
2024/01/26 09:39:12;;;;;;;;;;;;;;;;;;4929239;29;3410;-60
2024/01/26 09:41:38;;;;;;;;;;;;;;;;;;4930371;29;5049;-60
2024/01/26 09:44:03;;;;;;;;;;;;;;;;;;4929514;29;4610;-55
2024/01/26 09:46:32;;;;;;;;;;;;;;;;;;4930598;29;5193;-61
2024/01/26 09:48:57;;;;;;;;;;;;;;;;;;4929160;29;5113;-60
2024/01/26 09:51:23;;;;;;;;;;;;;;;;;;4930624;29;3417;-62
2024/01/26 09:53:49;;;;;;;;;;;;;;;;;;4913770;29;4776;-60
2024/01/26 09:56:14;;;;;;;;;;;;;;;;;;4927403;29;5074;-59
2024/01/26 09:58:40;;;;;;;;;;;;;;;;;;4930647;29;5269;-64
2024/01/26 10:01:05;;;;;;;;;;;;;;;;;;4930038;29;4581;-69
2024/01/26 10:03:31;;;;;;;;;;;;;;;;;;4912852;29;3277;-58
2024/01/26 10:05:56;;;;;;;;;;;;;;;;;;4929498;29;4530;-59
2024/01/26 10:08:21;;;;;;;;;;;;;;;;;;4926715;29;4514;-58
2024/01/26 10:10:46;;;;;;;;;;;;;;;;;;4923394;29;5177;-58
2024/01/26 10:13:12;;;;;;;;;;;;;;;;;;4925129;29;5109;-55
2024/01/26 10:15:37;;;;;;;;;;;;;;;;;;4929113;29;4708;-56
2024/01/26 10:18:03;;;;;;;;;;;;;;;;;;4926451;29;1104;-58
2024/01/26 10:20:29;;;;;;;;;;;;;;;;;;4929937;29;5937;-58
2024/01/26 10:22:55;;;;;;;;;;;;;;;;;;4926983;29;5038;-57
2024/01/26 10:25:20;;;;;;;;;;;;;;;;;;4926935;29;5013;-58
2024/01/26 10:27:45;;;;;;;;;;;;;;;;;;4911765;29;5159;-55
2024/01/26 10:30:11;;;;;;;;;;;;;;;;;;4929427;29;3374;-61
2024/01/26 10:32:37;;;;;;;;;;;;;;;;;;4928689;29;4989;-55
2024/01/26 10:35:03;;;;;;;;;;;;;;;;;;4928355;29;4843;-62
2024/01/26 10:37:31;;;;;;;;;;;;;;;;;;4911664;29;4521;-53
2024/01/26 10:39:57;;;;;;;;;;;;;;;;;;4928989;29;5143;-60
2024/01/26 10:42:23;;;;;;;;;;;;;;;;;;4925946;29;1948;-57
2024/01/26 10:44:49;;;;;;;;;;;;;;;;;;4928817;29;4645;-55
2024/01/26 10:47:14;;;;;;;;;;;;;;;;;;4912342;29;4554;-57
2024/01/26 10:49:39;;;;;;;;;;;;;;;;;;4912321;29;4780;-58
2024/01/26 10:52:05;;;;;;;;;;;;;;;;;;4911256;29;5046;-58
2024/01/26 10:54:30;;;;;;;;;;;;;;;;;;4930133;28;1235;-57
2024/01/26 10:56:56;;;;;;;;;;;;;;;;;;4911033;29;4875;-62
2024/01/26 10:59:21;;;;;;;;;;;;;;;;;;4930418;29;4887;-60
2024/01/26 11:01:46;;;;;;;;;;;;;;;;;;4915786;29;5129;-58
2024/01/26 11:04:12;;;;;;;;;;;;;;;;;;4899842;29;4979;-59
2024/01/26 11:06:39;;;;;;;;;;;;;;;;;;4931189;29;5157;-65
2024/01/26 11:09:07;;;;;;;;;;;;;;;;;;4931969;29;3937;-59
2024/01/26 11:11:35;;;;;;;;;;;;;;;;;;4933301;29;5251;-60
2024/01/26 11:14:01;;;;;;;;;;;;;;;;;;4933198;29;4649;-55
2024/01/26 11:16:33;;;;;;;;;;;;;;;;;;4928620;29;4504;-59
2024/01/26 11:18:59;;;;;;;;;;;;;;;;;;4930731;29;5418;-55
2024/01/26 11:21:24;;;;;;;;;;;;;;;;;;4915419;29;3399;-57
2024/01/26 11:23:49;;;;;;;;;;;;;;;;;;4928541;29;4854;-58
2024/01/26 11:26:15;;;;;;;;;;;;;;;;;;4932651;29;4849;-60
2024/01/26 11:28:41;;;;;;;;;;;;;;;;;;4932888;29;4494;-57
2024/01/26 11:31:06;;;;;;;;;;;;;;;;;;4932558;29;4831;-60
2024/01/26 11:33:35;;;;;;;;;;;;;;;;;;4915747;29;3514;-55
2024/01/26 11:36:04;;;;;;;;;;;;;;;;;;4929621;29;5084;-58
2024/01/26 11:38:30;;;;;;;;;;;;;;;;;;4931381;29;4975;-57
2024/01/26 11:40:55;;;;;;;;;;;;;;;;;;4914154;29;5052;-58
2024/01/26 11:43:21;;;;;;;;;;;;;;;;;;4932512;29;5168;-61
2024/01/26 11:45:46;;;;;;;;;;;;;;;;;;4915419;29;5124;-59
2024/01/26 11:48:12;;;;;;;;;;;;;;;;;;4931659;29;3237;-58
2024/01/26 11:50:38;;;;;;;;;;;;;;;;;;4932203;29;5186;-58
2024/01/26 11:53:04;;;;;;;;;;;;;;;;;;4913318;29;5092;-60
2024/01/26 11:55:29;;;;;;;;;;;;;;;;;;4930869;29;5078;-58
2024/01/26 11:57:54;;;;;;;;;;;;;;;;;;4914962;29;4697;-55
2024/01/26 12:00:20;;;;;;;;;;;;;;;;;;4915708;29;1069;-55
2024/01/26 12:02:45;;;;;;;;;;;;;;;;;;4932033;29;5052;-60
2024/01/26 12:05:10;;;;;;;;;;;;;;;;;;4929762;29;5045;-58
2024/01/26 12:07:36;;;;;;;;;;;;;;;;;;4930211;29;5066;-60
2024/01/26 12:10:02;;;;;;;;;;;;;;;;;;4932434;29;5195;-58
2024/01/26 12:12:27;;;;;;;;;;;;;;;;;;4916021;29;1298;-61
2024/01/26 12:14:52;;;;;;;;;;;;;;;;;;4931033;29;4669;-58
2024/01/26 12:17:18;;;;;;;;;;;;;;;;;;4903557;29;5175;-55
2024/01/26 12:19:43;;;;;;;;;;;;;;;;;;4922377;29;5808;-55
2024/01/26 12:22:09;;;;;;;;;;;;;;;;;;4928401;29;4970;-59
2024/01/26 12:24:35;;;;;;;;;;;;;;;;;;4913792;29;3327;-57
2024/01/26 12:27:00;;;;;;;;;;;;;;;;;;4931863;29;5076;-56
2024/01/26 12:29:26;;;;;;;;;;;;;;;;;;4931841;29;4466;-61
2024/01/26 12:31:51;;;;;;;;;;;;;;;;;;4931421;29;5081;-59
2024/01/26 12:34:16;;;;;;;;;;;;;;;;;;4931556;29;4979;-58
2024/01/26 12:36:42;;;;;;;;;;;;;;;;;;4928925;29;5171;-59
2024/01/26 12:39:08;;;;;;;;;;;;;;;;;;4929537;29;3308;-56
2024/01/26 12:41:33;;;;;;;;;;;;;;;;;;4914397;29;5120;-57
2024/01/26 12:43:59;;;;;;;;;;;;;;;;;;4928571;29;5066;-60
2024/01/26 12:46:24;;;;;;;;;;;;;;;;;;4931113;29;5006;-55
2024/01/26 12:48:49;;;;;;;;;;;;;;;;;;4925463;29;5911;-57
2024/01/26 12:51:15;;;;;;;;;;;;;;;;;;4931730;29;1198;-61
2024/01/26 12:53:40;;;;;;;;;;;;;;;;;;4927466;29;4619;-62
2024/01/26 12:56:05;;;;;;;;;;;;;;;;;;4930822;28;5159;-55
2024/01/26 12:58:31;;;;;;;;;;;;;;;;;;4931524;29;5126;-56
2024/01/26 13:00:56;;;;;;;;;;;;;;;;;;4929602;29;4536;-59
2024/01/26 13:03:23;;;;;;;;;;;;;;;;;;4931549;29;1175;-65
2024/01/26 13:05:51;;;;;;;;;;;;;;;;;;4911450;29;5011;-58
2024/01/26 13:08:16;;;;;;;;;;;;;;;;;;4911908;29;5160;-57
2024/01/26 13:10:42;;;;;;;;;;;;;;;;;;4931124;29;5098;-57
2024/01/26 13:13:07;;;;;;;;;;;;;;;;;;4931346;29;4513;-61
2024/01/26 13:15:33;;;;;;;;;;;;;;;;;;4931790;29;1234;-57
2024/01/26 13:17:58;;;;;;;;;;;;;;;;;;4927764;29;4687;-55
2024/01/26 13:20:24;;;;;;;;;;;;;;;;;;4930862;29;5027;-64
2024/01/26 13:22:49;;;;;;;;;;;;;;;;;;4928236;29;5271;-57
2024/01/26 13:25:17;;;;;;;;;;;;;;;;;;4931018;29;5078;-56
2024/01/26 13:27:42;;;;;;;;;;;;;;;;;;4928618;29;5229;-61
2024/01/26 13:30:08;;;;;;;;;;;;;;;;;;4930062;29;3540;-57
2024/01/26 13:32:33;;;;;;;;;;;;;;;;;;4930662;29;4978;-58
2024/01/26 13:34:59;;;;;;;;;;;;;;;;;;4913003;29;5475;-56
2024/01/26 13:37:24;;;;;;;;;;;;;;;;;;4930348;29;4666;-60
2024/01/26 13:39:49;;;;;;;;;;;;;;;;;;4929250;29;4550;-60
2024/01/26 13:42:15;;;;;;;;;;;;;;;;;;4926456;29;3450;-58
2024/01/26 13:44:43;;;;;;;;;;;;;;;;;;4930300;29;4897;-56
2024/01/26 13:47:08;;;;;;;;;;;;;;;;;;4913596;29;5103;-60
2024/01/26 13:49:33;;;;;;;;;;;;;;;;;;4930244;29;5135;-59
2024/01/26 13:51:59;;;;;;;;;;;;;;;;;;4928663;29;5235;-58
2024/01/26 13:54:24;;;;;;;;;;;;;;;;;;4929282;29;1474;-55
2024/01/26 13:56:56;;;;;;;;;;;;;;;;;;4926256;29;4606;-54
2024/01/26 13:59:21;;;;;;;;;;;;;;;;;;4925835;29;5141;-56
2024/01/26 14:01:47;;;;;;;;;;;;;;;;;;4924821;29;5459;-57
2024/01/26 14:04:13;;;;;;;;;;;;;;;;;;4927869;29;4744;-57
2024/01/26 14:06:39;;;;;;;;;;;;;;;;;;4930354;29;4708;-58
2024/01/26 14:09:05;;;;;;;;;;;;;;;;;;4907899;29;3412;-57
2024/01/26 14:11:33;;;;;;;;;;;;;;;;;;4929789;29;5282;-56
2024/01/26 14:13:58;;;;;;;;;;;;;;;;;;4929725;29;5127;-57
2024/01/26 14:16:23;;;;;;;;;;;;;;;;;;4928367;29;5111;-61
2024/01/26 14:18:48;;;;;;;;;;;;;;;;;;4928301;29;5279;-61
2024/01/26 14:21:14;;;;;;;;;;;;;;;;;;4930845;29;1903;-57
2024/01/26 14:23:39;;;;;;;;;;;;;;;;;;4925788;29;5060;-57
2024/01/26 14:26:04;;;;;;;;;;;;;;;;;;4923428;29;5082;-59
2024/01/26 14:28:30;;;;;;;;;;;;;;;;;;4928568;29;4904;-53
2024/01/26 14:30:55;;;;;;;;;;;;;;;;;;4929415;29;5018;-53
2024/01/26 14:33:20;;;;;;;;;;;;;;;;;;4926314;29;1088;-53
2024/01/26 14:35:46;;;;;;;;;;;;;;;;;;4933447;29;4639;-56
2024/01/26 14:38:13;;;;;;;;;;;;;;;;;;4933965;29;4913;-56
2024/01/26 14:40:38;;;;;;;;;;;;;;;;;;4933142;29;5099;-60
2024/01/26 14:43:06;;;;;;;;;;;;;;;;;;4933779;29;5122;-59
2024/01/26 14:45:32;;;;;;;;;;;;;;;;;;4934543;29;1160;-54
2024/01/26 14:47:57;;;;;;;;;;;;;;;;;;4931869;29;4624;-60
2024/01/26 14:50:22;;;;;;;;;;;;;;;;;;4916609;29;4637;-57
2024/01/26 14:52:48;;;;;;;;;;;;;;;;;;4928728;29;4987;-57
2024/01/26 14:55:13;;;;;;;;;;;;;;;;;;4932460;28;5129;-58
2024/01/26 14:57:39;;;;;;;;;;;;;;;;;;4909692;29;4581;-60
2024/01/26 15:00:08;;;;;;;;;;;;;;;;;;4932400;29;3331;-64
2024/01/26 15:02:36;;;;;;;;;;;;;;;;;;4913350;29;4513;-55
2024/01/26 15:05:02;;;;;;;;;;;;;;;;;;4929452;29;4706;-57
2024/01/26 15:07:28;;;;;;;;;;;;;;;;;;4930555;29;5174;-58
2024/01/26 15:09:53;;;;;;;;;;;;;;;;;;4930944;29;4747;-57
2024/01/26 15:12:18;;;;;;;;;;;;;;;;;;4930080;29;3394;-56
2024/01/26 15:14:44;;;;;;;;;;;;;;;;;;4931710;29;5067;-58
2024/01/26 15:17:10;;;;;;;;;;;;;;;;;;4930958;29;5679;-59
2024/01/26 15:19:35;;;;;;;;;;;;;;;;;;4933270;29;4471;-61
2024/01/26 15:22:00;;;;;;;;;;;;;;;;;;4913160;29;4612;-56
2024/01/26 15:24:26;;;;;;;;;;;;;;;;;;4929729;29;3471;-55
2024/01/26 15:26:52;;;;;;;;;;;;;;;;;;4932087;29;4827;-54
2024/01/26 15:29:18;;;;;;;;;;;;;;;;;;4931871;29;4562;-55
2024/01/26 15:31:43;;;;;;;;;;;;;;;;;;4926856;29;4518;-59
2024/01/26 15:34:08;;;;;;;;;;;;;;;;;;4930808;29;4760;-55
2024/01/26 15:36:34;;;;;;;;;;;;;;;;;;4933407;29;3241;-56
2024/01/26 15:38:59;;;;;;;;;;;;;;;;;;4933237;29;4490;-53
2024/01/26 15:41:26;;;;;;;;;;;;;;;;;;4911686;29;4633;-57
2024/01/26 15:43:52;;;;;;;;;;;;;;;;;;4932630;29;5199;-62
2024/01/26 15:46:17;;;;;;;;;;;;;;;;;;4931228;29;4631;-61
2024/01/26 15:48:42;;;;;;;;;;;;;;;;;;4930906;29;4571;-59
2024/01/26 15:51:11;;;;;;;;;;;;;;;;;;4927107;29;3444;-57
2024/01/26 15:53:36;;;;;;;;;;;;;;;;;;4926549;29;4915;-67
2024/01/26 15:56:04;;;;;;;;;;;;;;;;;;4932538;28;5074;-58
2024/01/26 15:58:29;;;;;;;;;;;;;;;;;;4929778;29;5083;-57
2024/01/26 16:00:55;;;;;;;;;;;;;;;;;;4929524;29;5099;-58
2024/01/26 16:03:20;;;;;;;;;;;;;;;;;;4929325;29;3352;-54
2024/01/26 16:05:45;;;;;;;;;;;;;;;;;;4929672;29;4983;-55
2024/01/26 16:08:11;;;;;;;;;;;;;;;;;;4931833;29;5141;-59
2024/01/26 16:10:40;;;;;;;;;;;;;;;;;;4928547;29;5127;-58
2024/01/26 16:13:05;;;;;;;;;;;;;;;;;;4928175;29;5126;-55
2024/01/26 16:15:30;;;;;;;;;;;;;;;;;;4931421;29;3430;-60
2024/01/26 16:17:56;;;;;;;;;;;;;;;;;;4930288;29;5072;-59
2024/01/26 16:20:21;;;;;;;;;;;;;;;;;;4929222;29;4675;-58
2024/01/26 16:22:47;;;;;;;;;;;;;;;;;;4914463;29;5135;-60
2024/01/26 16:25:12;;;;;;;;;;;;;;;;;;4931666;29;5073;-57
2024/01/26 16:27:37;;;;;;;;;;;;;;;;;;4930165;29;5198;-59
2024/01/26 16:30:05;;;;;;;;;;;;;;;;;;4928676;29;4064;-58
2024/01/26 16:32:31;;;;;;;;;;;;;;;;;;4930438;29;5199;-58
2024/01/26 16:34:56;;;;;;;;;;;;;;;;;;4930732;29;4672;-60
2024/01/26 16:37:21;;;;;;;;;;;;;;;;;;4929240;29;4934;-59
2024/01/26 16:39:46;;;;;;;;;;;;;;;;;;4932252;29;5155;-61
2024/01/26 16:42:12;;;;;;;;;;;;;;;;;;4924517;29;1972;-61
2024/01/26 16:44:37;;;;;;;;;;;;;;;;;;4930672;29;4464;-62
2024/01/26 16:47:02;;;;;;;;;;;;;;;;;;4928671;29;5046;-61
2024/01/26 16:49:28;;;;;;;;;;;;;;;;;;4930782;29;4503;-57
2024/01/26 16:51:56;;;;;;;;;;;;;;;;;;4929356;29;5478;-53